createdAt,value
2022-08-03T00:00:49.536Z,44.0078125
2022-08-03T00:01:22.971Z,44.1318359375
2022-08-03T00:02:23.300Z,44.095703125
2022-08-03T00:03:23.035Z,44.09375
2022-08-03T00:04:33.622Z,44.0498046875
2022-08-03T00:05:23.038Z,44.185546875
2022-08-03T00:06:23.013Z,44.2861328125
2022-08-03T00:07:23.238Z,44.3193359375
2022-08-03T00:08:23.040Z,44.4130859375
2022-08-03T00:09:22.880Z,44.423828125
2022-08-03T00:10:22.960Z,44.505859375
2022-08-03T00:11:22.931Z,44.609375
2022-08-03T00:12:23.311Z,44.4267578125
2022-08-03T00:13:22.966Z,44.4384765625
2022-08-03T00:14:23.009Z,44.5322265625
2022-08-03T00:15:25.933Z,44.65625
2022-08-03T00:16:23.164Z,44.759765625
2022-08-03T00:17:23.366Z,44.83984375
2022-08-03T00:18:22.956Z,44.7353515625
2022-08-03T00:19:22.906Z,44.7685546875
2022-08-03T00:20:23.090Z,44.77734375
2022-08-03T00:21:22.890Z,44.8779296875
2022-08-03T00:22:23.311Z,44.95703125
2022-08-03T00:23:22.940Z,44.853515625
2022-08-03T00:24:22.958Z,44.943359375
2022-08-03T00:25:22.880Z,44.9775390625
2022-08-03T00:26:25.945Z,45.123046875
2022-08-03T00:27:23.235Z,45.2138671875
2022-08-03T00:28:23.045Z,45.2822265625
2022-08-03T00:29:22.977Z,45.3837890625
2022-08-03T00:30:22.923Z,45.5078125
2022-08-03T00:31:37.990Z,45.6904296875
2022-08-03T00:32:24.741Z,45.7119140625
2022-08-03T00:33:22.983Z,45.828125
2022-08-03T00:34:34.573Z,45.8720703125
2022-08-03T00:35:36.883Z,46.0322265625
2022-08-03T00:36:23.010Z,46.04296875
2022-08-03T00:37:41.060Z,46.212890625
2022-08-03T00:38:22.961Z,46.5673828125
2022-08-03T00:39:23.016Z,46.4443359375
2022-08-03T00:40:23.068Z,46.6279296875
2022-08-03T00:41:22.942Z,46.55859375
2022-08-03T00:42:22.886Z,46.615234375
2022-08-03T00:43:23.021Z,46.568359375
2022-08-03T00:44:22.926Z,46.626953125
2022-08-03T00:45:22.981Z,46.615234375
2022-08-03T00:46:23.022Z,46.70703125
2022-08-03T00:47:23.231Z,46.6708984375
2022-08-03T00:48:32.969Z,46.681640625
2022-08-03T00:49:23.006Z,46.955078125
2022-08-03T00:50:23.033Z,46.9873046875
2022-08-03T00:51:23.077Z,47
2022-08-03T00:52:23.268Z,46.9755859375
2022-08-03T00:53:23.026Z,47.033203125
2022-08-03T00:54:23.018Z,47.203125
2022-08-03T00:55:23.009Z,47.2275390625
2022-08-03T00:56:23.056Z,47.2939453125
2022-08-03T00:57:23.301Z,47.4208984375
2022-08-03T00:58:23.083Z,47.4111328125
2022-08-03T00:59:26.002Z,47.46875
2022-08-03T01:00:23.082Z,47.501953125
2022-08-03T01:01:23.009Z,47.6376953125
2022-08-03T01:02:23.308Z,47.658203125
2022-08-03T01:03:23.061Z,47.7490234375
2022-08-03T01:04:23.018Z,48.0439453125
2022-08-03T01:05:22.954Z,48.216796875
2022-08-03T01:06:22.889Z,48.4150390625
2022-08-03T01:07:23.312Z,48.2998046875
2022-08-03T01:08:23.054Z,48.27734375
2022-08-03T01:09:23.011Z,48.42578125
2022-08-03T01:10:25.933Z,48.666015625
2022-08-03T01:11:22.928Z,48.6435546875
2022-08-03T01:12:23.306Z,48.689453125
2022-08-03T01:13:59.882Z,48.828125
2022-08-03T01:14:22.968Z,48.8505859375
2022-08-03T01:15:22.959Z,48.9833984375
2022-08-03T01:16:22.873Z,49.2578125
2022-08-03T01:17:23.365Z,49.7646484375
2022-08-03T01:18:23.076Z,49.4501953125
2022-08-03T01:19:22.992Z,49.6083984375
2022-08-03T01:20:23.096Z,49.8037109375
2022-08-03T01:21:25.927Z,49.7548828125
2022-08-03T01:22:23.231Z,49.642578125
2022-08-03T01:23:22.962Z,49.677734375
2022-08-03T01:24:23.087Z,50.0986328125
2022-08-03T01:25:22.973Z,49.97265625
2022-08-03T01:26:22.982Z,50.041015625
2022-08-03T01:27:23.272Z,50.07421875
2022-08-03T01:28:23.078Z,50.0751953125
2022-08-03T01:29:22.862Z,50.017578125
2022-08-03T01:30:22.893Z,50.02734375
2022-08-03T01:31:22.983Z,49.935546875
2022-08-03T01:33:02.618Z,50.0810546875
2022-08-03T01:33:23.067Z,50.3544921875
2022-08-03T01:34:23.085Z,50.546875
2022-08-03T01:35:23.036Z,50.7080078125
2022-08-03T01:36:23.109Z,50.9150390625
2022-08-03T01:37:23.239Z,51.2939453125
2022-08-03T01:38:22.986Z,51.1103515625
2022-08-03T01:39:22.969Z,51.1328125
2022-08-03T01:40:22.978Z,51.24609375
2022-08-03T01:41:22.938Z,51.671875
2022-08-03T01:42:23.299Z,51.5888671875
2022-08-03T01:44:28.487Z,51.75
2022-08-03T01:44:29.786Z,51.677734375
2022-08-03T01:45:22.969Z,51.5380859375
2022-08-03T01:46:23.007Z,51.4453125
2022-08-03T01:47:23.366Z,51.33984375
2022-08-03T01:48:23.048Z,51.3154296875
2022-08-03T01:49:23.000Z,51.3017578125
2022-08-03T01:50:23.078Z,51.3369140625
2022-08-03T01:51:23.024Z,51.439453125
2022-08-03T01:52:23.241Z,51.6806640625
2022-08-03T01:53:23.035Z,51.8984375
2022-08-03T01:54:25.978Z,51.841796875
2022-08-03T01:55:23.079Z,51.75
2022-08-03T01:56:23.051Z,51.8388671875
2022-08-03T01:57:23.313Z,51.896484375
2022-08-03T01:58:23.028Z,52.0771484375
2022-08-03T01:59:23.008Z,52.2587890625
2022-08-03T02:00:22.970Z,52.29296875
2022-08-03T02:01:23.018Z,52.2890625
2022-08-03T02:02:32.794Z,52.4462890625
2022-08-03T02:03:23.068Z,52.6142578125
2022-08-03T02:04:22.970Z,52.673828125
2022-08-03T02:05:23.014Z,52.68359375
2022-08-03T02:06:59.841Z,52.85546875
2022-08-03T02:07:23.361Z,53.232421875
2022-08-03T02:08:23.051Z,53.6318359375
2022-08-03T02:09:23.014Z,53.5830078125
2022-08-03T02:10:34.660Z,53.857421875
2022-08-03T02:11:22.859Z,53.732421875
2022-08-03T02:12:23.300Z,53.7060546875
2022-08-03T02:13:23.043Z,53.8671875
2022-08-03T02:14:23.003Z,53.8125
2022-08-03T02:15:22.965Z,53.9013671875
2022-08-03T02:16:22.961Z,54.056640625
2022-08-03T02:17:39.124Z,54.076171875
2022-08-03T02:18:22.992Z,54.154296875
2022-08-03T02:19:22.881Z,54.1416015625
2022-08-03T02:20:23.010Z,54.3603515625
2022-08-03T02:21:56.829Z,54.4287109375
2022-08-03T02:22:23.233Z,54.3603515625
2022-08-03T02:23:22.879Z,54.4052734375
2022-08-03T02:24:22.989Z,54.4970703125
2022-08-03T02:25:22.987Z,54.54296875
2022-08-03T02:26:22.983Z,54.51953125
2022-08-03T02:27:23.244Z,54.5966796875
2022-08-03T02:28:23.019Z,54.583984375
2022-08-03T02:29:39.492Z,54.5732421875
2022-08-03T02:30:22.949Z,54.6201171875
2022-08-03T02:31:23.033Z,54.572265625
2022-08-03T02:32:28.927Z,54.4580078125
2022-08-03T02:33:22.981Z,54.58203125
2022-08-03T02:34:23.006Z,54.787109375
2022-08-03T02:35:22.948Z,54.6259765625
2022-08-03T02:36:22.882Z,54.556640625
2022-08-03T02:37:23.306Z,54.6240234375
2022-08-03T02:38:22.863Z,54.7021484375
2022-08-03T02:39:23.031Z,54.8623046875
2022-08-03T02:40:22.892Z,54.57421875
2022-08-03T02:41:22.854Z,54.939453125
2022-08-03T02:42:23.240Z,55.0517578125
2022-08-03T02:43:25.944Z,54.9833984375
2022-08-03T02:44:22.939Z,54.9384765625
2022-08-03T02:45:22.876Z,55.0048828125
2022-08-03T02:46:23.009Z,55.0078125
2022-08-03T02:47:23.239Z,54.9521484375
2022-08-03T02:48:23.035Z,55.064453125
2022-08-03T02:49:42.617Z,55.0166015625
2022-08-03T02:50:23.141Z,55.0595703125
2022-08-03T02:51:23.080Z,54.9775390625
2022-08-03T02:52:23.530Z,55.05859375
2022-08-03T02:53:23.094Z,55.11328125
2022-08-03T02:54:25.993Z,55.04296875
2022-08-03T02:55:23.093Z,55.12109375
2022-08-03T02:56:22.984Z,55.302734375
2022-08-03T02:57:23.263Z,55.0263671875
2022-08-03T02:58:23.089Z,55.126953125
2022-08-03T02:59:23.017Z,55.2177734375
2022-08-03T03:00:27.494Z,55.353515625
2022-08-03T03:01:23.088Z,55.501953125
2022-08-03T03:02:23.228Z,55.4404296875
2022-08-03T03:03:23.065Z,55.564453125
2022-08-03T03:04:22.972Z,55.20703125
2022-08-03T03:05:55.557Z,55.5361328125
2022-08-03T03:06:23.032Z,55.443359375
2022-08-03T03:07:23.308Z,55.623046875
2022-08-03T03:08:25.977Z,55.666015625
2022-08-03T03:09:22.975Z,55.80078125
2022-08-03T03:10:22.971Z,56.02734375
2022-08-03T03:11:22.852Z,56.0625
2022-08-03T03:12:23.352Z,56.0859375
2022-08-03T03:13:23.099Z,56.0732421875
2022-08-03T03:14:33.861Z,55.787109375
2022-08-03T03:15:23.028Z,55.9677734375
2022-08-03T03:16:25.955Z,56.0009765625
2022-08-03T03:17:23.230Z,56.126953125
2022-08-03T03:18:23.213Z,56.1279296875
2022-08-03T03:19:23.020Z,56.20703125
2022-08-03T03:20:29.068Z,56.357421875
2022-08-03T03:21:22.884Z,56.3330078125
2022-08-03T03:22:23.233Z,56.4140625
2022-08-03T03:23:22.975Z,56.36328125
2022-08-03T03:24:22.881Z,56.5234375
2022-08-03T03:25:23.037Z,56.783203125
2022-08-03T03:26:23.016Z,56.86328125
2022-08-03T03:27:28.914Z,56.8310546875
2022-08-03T03:28:23.069Z,56.9765625
2022-08-03T03:29:23.068Z,57.228515625
2022-08-03T03:30:23.068Z,57.2412109375
2022-08-03T03:31:23.022Z,57.166015625
2022-08-03T03:32:23.232Z,57.2568359375
2022-08-03T03:33:22.987Z,57.52734375
2022-08-03T03:34:22.978Z,57.7900390625
2022-08-03T03:35:22.894Z,57.767578125
2022-08-03T03:36:23.019Z,57.7119140625
2022-08-03T03:37:23.302Z,57.8818359375
2022-08-03T03:38:25.994Z,57.904296875
2022-08-03T03:39:23.065Z,57.8115234375
2022-08-03T03:40:22.933Z,57.9462890625
2022-08-03T03:41:22.857Z,57.8896484375
2022-08-03T03:42:23.313Z,58.1396484375
2022-08-03T03:43:23.141Z,58.173828125
2022-08-03T03:44:23.014Z,58.0478515625
2022-08-03T03:45:23.019Z,58.080078125
2022-08-03T03:46:22.961Z,58.0458984375
2022-08-03T03:47:32.353Z,58.0478515625
2022-08-03T03:48:22.966Z,58.013671875
2022-08-03T03:49:26.079Z,57.990234375
2022-08-03T03:50:23.088Z,57.9365234375
2022-08-03T03:51:23.064Z,57.7783203125
2022-08-03T03:52:23.234Z,58.03125
2022-08-03T03:53:23.086Z,57.916015625
2022-08-03T03:54:25.580Z,58.107421875
2022-08-03T03:55:23.007Z,58.255859375
2022-08-03T03:56:23.006Z,58.1298828125
2022-08-03T03:57:23.238Z,58.1298828125
2022-08-03T03:58:22.945Z,58.0615234375
2022-08-03T03:59:22.993Z,57.880859375
2022-08-03T04:00:26.015Z,57.8466796875
2022-08-03T04:01:23.112Z,57.7197265625
2022-08-03T04:02:23.306Z,57.765625
2022-08-03T04:03:22.998Z,57.763671875
2022-08-03T04:04:22.953Z,57.68359375
2022-08-03T04:05:22.995Z,57.6376953125
2022-08-03T04:06:22.859Z,57.546875
2022-08-03T04:07:23.303Z,57.45703125
2022-08-03T04:08:22.982Z,57.30859375
2022-08-03T04:09:22.989Z,57.1533203125
2022-08-03T04:10:23.014Z,57.1171875
2022-08-03T04:11:31.047Z,57.0712890625
2022-08-03T04:12:23.237Z,57.1376953125
2022-08-03T04:13:23.082Z,56.958984375
2022-08-03T04:14:23.041Z,56.9248046875
2022-08-03T04:15:23.021Z,56.9150390625
2022-08-03T04:16:23.052Z,56.94921875
2022-08-03T04:17:23.232Z,57.08984375
2022-08-03T04:18:22.989Z,56.9560546875
2022-08-03T04:19:23.543Z,56.8193359375
2022-08-03T04:20:23.096Z,56.841796875
2022-08-03T04:21:22.948Z,56.896484375
2022-08-03T04:22:28.859Z,57.1025390625
2022-08-03T04:23:23.079Z,57.138671875
2022-08-03T04:24:23.045Z,57.17578125
2022-08-03T04:25:22.958Z,57.1552734375
2022-08-03T04:26:22.861Z,57.16796875
2022-08-03T04:27:23.307Z,56.986328125
2022-08-03T04:28:30.578Z,56.9541015625
2022-08-03T04:29:23.079Z,56.853515625
2022-08-03T04:30:22.970Z,56.796875
2022-08-03T04:31:23.000Z,56.626953125
2022-08-03T04:32:23.226Z,56.71875
2022-08-03T04:33:25.984Z,56.6064453125
2022-08-03T04:34:23.069Z,56.4716796875
2022-08-03T04:35:22.992Z,56.345703125
2022-08-03T04:36:22.946Z,56.0517578125
2022-08-03T04:37:23.300Z,55.8603515625
2022-08-03T04:38:22.932Z,55.642578125
2022-08-03T04:39:22.987Z,55.6103515625
2022-08-03T04:40:23.088Z,55.4638671875
2022-08-03T04:41:22.925Z,55.509765625
2022-08-03T04:42:23.300Z,55.26171875
2022-08-03T04:43:22.986Z,55.2880859375
2022-08-03T04:44:28.301Z,55.23046875
2022-08-03T04:45:23.039Z,55.1640625
2022-08-03T04:46:23.021Z,55.1201171875
2022-08-03T04:47:23.309Z,55.0185546875
2022-08-03T04:48:23.047Z,54.7587890625
2022-08-03T04:49:23.011Z,54.58984375
2022-08-03T04:50:22.968Z,54.46484375
2022-08-03T04:51:23.005Z,54.3662109375
2022-08-03T04:52:23.251Z,54.267578125
2022-08-03T04:53:23.311Z,54.12890625
2022-08-03T04:54:23.076Z,54.197265625
2022-08-03T04:55:25.910Z,54.1767578125
2022-08-03T04:56:23.077Z,54.0419921875
2022-08-03T04:57:23.650Z,54.0830078125
2022-08-03T04:58:22.938Z,54.0830078125
2022-08-03T04:59:23.002Z,53.947265625
2022-08-03T05:00:23.048Z,53.708984375
2022-08-03T05:01:23.124Z,53.642578125
2022-08-03T05:02:23.002Z,53.6015625
2022-08-03T05:03:24.491Z,53.5419921875
2022-08-03T05:04:22.848Z,53.599609375
2022-08-03T05:05:22.846Z,53.5791015625
2022-08-03T05:06:25.982Z,53.3642578125
2022-08-03T05:07:25.137Z,53.2724609375
2022-08-03T05:08:27.757Z,53.1728515625
2022-08-03T05:09:39.591Z,53.1171875
2022-08-03T05:10:23.019Z,53.22265625
2022-08-03T05:11:22.920Z,53.1982421875
2022-08-03T05:12:23.267Z,53.17578125
2022-08-03T05:13:22.960Z,52.833984375
2022-08-03T05:14:27.959Z,52.8359375
2022-08-03T05:15:23.055Z,52.744140625
2022-08-03T05:16:23.002Z,52.4365234375
2022-08-03T05:17:28.865Z,52.18359375
2022-08-03T05:18:23.051Z,51.8447265625
2022-08-03T05:19:22.884Z,51.7431640625
2022-08-03T05:20:22.941Z,51.55078125
2022-08-03T05:21:22.887Z,51.416015625
2022-08-03T05:22:23.233Z,51.3154296875
2022-08-03T05:23:22.892Z,51.103515625
2022-08-03T05:24:22.965Z,50.84375
2022-08-03T05:25:27.325Z,50.685546875
2022-08-03T05:26:23.026Z,50.7548828125
2022-08-03T05:27:22.960Z,50.5390625
2022-08-03T05:28:25.936Z,50.630859375
2022-08-03T05:29:23.028Z,50.458984375
2022-08-03T05:30:29.787Z,50.369140625
2022-08-03T05:31:22.968Z,50.2021484375
2022-08-03T05:32:23.228Z,50.11328125
2022-08-03T05:33:23.043Z,50.060546875
2022-08-03T05:34:23.006Z,50.005859375
2022-08-03T05:36:02.728Z,49.783203125
2022-08-03T05:36:23.060Z,49.580078125
2022-08-03T05:37:23.230Z,49.294921875
2022-08-03T05:38:28.572Z,49.36328125
2022-08-03T05:39:25.981Z,49.2060546875
2022-08-03T05:40:23.053Z,48.865234375
2022-08-03T05:41:36.610Z,48.720703125
2022-08-03T05:42:23.327Z,48.64453125
2022-08-03T05:43:23.080Z,48.4892578125
2022-08-03T05:44:23.084Z,48.2197265625
2022-08-03T05:45:27.918Z,47.974609375
2022-08-03T05:46:22.877Z,47.673828125
2022-08-03T05:47:23.305Z,47.37109375
2022-08-03T05:48:22.968Z,46.6806640625
2022-08-03T05:49:22.965Z,43.421875
2022-08-03T05:50:25.954Z,37.1533203125
2022-08-03T05:51:23.003Z,30.560546875
2022-08-03T05:52:23.650Z,25.4677734375
2022-08-03T05:53:23.039Z,21.7421875
2022-08-03T05:54:23.009Z,20.109375
2022-08-03T05:55:23.002Z,17.2041015625
2022-08-03T05:56:22.966Z,14.2783203125
2022-08-03T05:57:23.310Z,14.146484375
2022-08-03T05:58:23.024Z,13.462890625
2022-08-03T05:59:38.244Z,11.4150390625
2022-08-03T06:00:22.907Z,9.2763671875
2022-08-03T06:01:26.004Z,8.1806640625
2022-08-03T06:02:23.243Z,5.390625
2022-08-03T06:03:23.074Z,4.9697265625
2022-08-03T06:04:22.882Z,4.3203125
2022-08-03T06:05:22.983Z,3.6474609375
2022-08-03T06:06:22.946Z,2.888671875
2022-08-03T06:07:23.229Z,2.26171875
2022-08-03T06:08:22.963Z,1.9228515625
2022-08-03T06:09:23.061Z,0.49609375
2022-08-03T06:10:36.189Z,0
2022-08-03T06:11:22.932Z,0
2022-08-03T06:12:26.281Z,0
2022-08-03T06:13:23.056Z,0
2022-08-03T06:14:22.899Z,0
2022-08-03T06:15:23.074Z,0
2022-08-03T06:16:22.880Z,0
2022-08-03T06:17:23.315Z,0
2022-08-03T06:18:22.949Z,0
2022-08-03T06:19:22.955Z,0
2022-08-03T06:20:27.328Z,0
2022-08-03T06:21:23.036Z,0
2022-08-03T06:22:23.310Z,0
2022-08-03T06:23:52.643Z,0
2022-08-03T06:24:25.081Z,0
2022-08-03T06:25:23.005Z,0
2022-08-03T06:26:22.969Z,0
2022-08-03T06:27:36.655Z,0
2022-08-03T06:28:52.813Z,0
2022-08-03T06:29:23.025Z,0
2022-08-03T06:30:23.015Z,0
2022-08-03T06:31:23.088Z,0
2022-08-03T06:32:23.225Z,0
2022-08-03T06:33:23.040Z,0
2022-08-03T06:34:33.153Z,0
2022-08-03T06:35:23.085Z,0
2022-08-03T06:36:23.064Z,0
2022-08-03T06:37:23.309Z,0
2022-08-03T06:38:22.964Z,0
2022-08-03T06:39:23.670Z,0
2022-08-03T06:40:24.350Z,0
2022-08-03T06:41:22.944Z,0
2022-08-03T06:42:23.315Z,0
2022-08-03T06:43:23.068Z,0
2022-08-03T06:44:23.021Z,0
2022-08-03T06:45:25.988Z,0
2022-08-03T06:46:23.091Z,0
2022-08-03T06:47:23.235Z,0
2022-08-03T06:48:23.064Z,0
2022-08-03T06:49:23.060Z,0
2022-08-03T06:50:25.998Z,0
2022-08-03T06:52:06.263Z,0
2022-08-03T06:52:37.593Z,0
2022-08-03T06:53:22.995Z,0
2022-08-03T06:54:22.972Z,0
2022-08-03T06:55:22.987Z,0
2022-08-03T06:56:22.903Z,0
2022-08-03T06:57:23.232Z,0
2022-08-03T06:58:22.986Z,0
2022-08-03T07:00:07.870Z,0
2022-08-03T07:00:23.058Z,0
2022-08-03T07:01:23.077Z,0
2022-08-03T07:02:28.891Z,0
2022-08-03T07:03:23.043Z,0
2022-08-03T07:04:22.980Z,0
2022-08-03T07:05:23.057Z,0
2022-08-03T07:06:23.015Z,0
2022-08-03T07:07:23.227Z,0
2022-08-03T07:08:33.421Z,0
2022-08-03T07:09:23.013Z,0
2022-08-03T07:10:23.076Z,0
2022-08-03T07:11:22.857Z,0
2022-08-03T07:12:23.309Z,0
2022-08-03T07:13:25.869Z,0
2022-08-03T07:14:23.085Z,0
2022-08-03T07:15:55.249Z,0
2022-08-03T07:16:23.017Z,0
2022-08-03T07:17:23.328Z,0
2022-08-03T07:18:23.050Z,0
2022-08-03T07:19:22.987Z,0
2022-08-03T07:20:23.082Z,0
2022-08-03T07:21:23.086Z,0
2022-08-03T07:22:23.240Z,0
2022-08-03T07:23:23.048Z,0
2022-08-03T07:24:25.943Z,0
2022-08-03T07:25:23.088Z,0
2022-08-03T07:26:23.068Z,0
2022-08-03T07:27:23.300Z,0
2022-08-03T07:28:23.055Z,0
2022-08-03T07:29:23.005Z,0
2022-08-03T07:30:23.053Z,0
2022-08-03T07:31:22.944Z,0
2022-08-03T07:32:23.302Z,0
2022-08-03T07:33:23.087Z,0
2022-08-03T07:34:22.875Z,0
2022-08-03T07:35:25.878Z,0
2022-08-03T07:36:23.075Z,0
2022-08-03T07:37:23.374Z,0
2022-08-03T07:38:23.024Z,0
2022-08-03T07:39:23.010Z,0
2022-08-03T07:40:23.004Z,0
2022-08-03T07:41:22.850Z,0
2022-08-03T07:42:23.307Z,0
2022-08-03T07:43:22.982Z,0
2022-08-03T07:44:22.973Z,0
2022-08-03T07:45:22.989Z,0
2022-08-03T07:46:26.737Z,0
2022-08-03T07:47:23.246Z,0
2022-08-03T07:48:22.961Z,0
2022-08-03T07:49:23.038Z,0
2022-08-03T07:50:23.035Z,0
2022-08-03T07:51:22.877Z,0
2022-08-03T07:52:28.919Z,0
2022-08-03T07:53:22.969Z,0
2022-08-03T07:54:23.017Z,0
2022-08-03T07:55:23.061Z,0
2022-08-03T07:56:23.011Z,0
2022-08-03T07:57:23.241Z,0
2022-08-03T07:58:24.318Z,0
2022-08-03T07:59:22.976Z,0
2022-08-03T08:00:23.069Z,1.1240234375
2022-08-03T08:01:22.993Z,3.8671875
2022-08-03T08:02:23.304Z,6.5595703125
2022-08-03T08:03:25.853Z,8.8232421875
2022-08-03T08:04:23.049Z,10.19921875
2022-08-03T08:05:22.982Z,11.48828125
2022-08-03T08:06:23.096Z,12.6103515625
2022-08-03T08:07:23.233Z,13.3876953125
2022-08-03T08:08:22.963Z,13.583984375
2022-08-03T08:09:22.912Z,15.2451171875
2022-08-03T08:10:23.009Z,16.0322265625
2022-08-03T08:11:22.876Z,16.572265625
2022-08-03T08:12:23.024Z,17.20703125
2022-08-03T08:13:23.022Z,17.8046875
2022-08-03T08:14:25.908Z,18.3779296875
2022-08-03T08:15:23.063Z,18.728515625
2022-08-03T08:16:22.989Z,18.9375
2022-08-03T08:17:23.229Z,18.8642578125
2022-08-03T08:18:23.062Z,19.193359375
2022-08-03T08:19:22.956Z,19.3681640625
2022-08-03T08:20:28.078Z,19.5078125
2022-08-03T08:21:23.018Z,19.91796875
2022-08-03T08:22:29.748Z,20.0693359375
2022-08-03T08:23:29.849Z,20.2802734375
2022-08-03T08:24:22.985Z,20.3515625
2022-08-03T08:25:26.000Z,20.3720703125
2022-08-03T08:26:23.018Z,20.44140625
2022-08-03T08:27:23.299Z,20.5
2022-08-03T08:28:31.769Z,20.3466796875
2022-08-03T08:29:22.895Z,20.3935546875
2022-08-03T08:30:22.980Z,20.21484375
2022-08-03T08:31:22.968Z,20.669921875
2022-08-03T08:32:23.317Z,20.9228515625
2022-08-03T08:33:24.041Z,21.306640625
2022-08-03T08:34:22.963Z,21.646484375
2022-08-03T08:35:23.007Z,21.658203125
2022-08-03T08:36:25.847Z,21.447265625
2022-08-03T08:37:23.230Z,21.0986328125
2022-08-03T08:38:22.942Z,20.865234375
2022-08-03T08:39:23.019Z,20.6669921875
2022-08-03T08:40:22.922Z,20.8798828125
2022-08-03T08:41:22.863Z,20.7041015625
2022-08-03T08:42:23.245Z,20.6572265625
2022-08-03T08:43:23.013Z,20.4013671875
2022-08-03T08:44:23.080Z,20.625
2022-08-03T08:45:22.981Z,20.5283203125
2022-08-03T08:46:24.062Z,20.73828125
2022-08-03T08:47:28.930Z,20.75
2022-08-03T08:48:23.082Z,20.658203125
2022-08-03T08:49:23.069Z,20.6748046875
2022-08-03T08:50:27.618Z,20.1806640625
2022-08-03T08:51:22.960Z,20.51171875
2022-08-03T08:52:25.153Z,20.0888671875
2022-08-03T08:53:27.285Z,19.7255859375
2022-08-03T08:54:22.884Z,19.73828125
2022-08-03T08:55:23.013Z,20.0791015625
2022-08-03T08:56:23.025Z,20.0302734375
2022-08-03T08:57:41.780Z,19.7861328125
2022-08-03T08:58:25.986Z,19.6591796875
2022-08-03T08:59:23.045Z,19.26953125
2022-08-03T09:00:23.010Z,19.4716796875
2022-08-03T09:01:23.020Z,19.4140625
2022-08-03T09:02:23.239Z,19.5244140625
2022-08-03T09:03:29.864Z,18.814453125
2022-08-03T09:04:23.024Z,19.1328125
2022-08-03T09:05:41.368Z,19.08203125
2022-08-03T09:06:23.031Z,19.447265625
2022-08-03T09:07:23.229Z,19.4013671875
2022-08-03T09:08:23.043Z,19.6435546875
2022-08-03T09:10:00.271Z,19.162109375
2022-08-03T09:10:23.090Z,19
2022-08-03T09:11:23.259Z,18.1845703125
2022-08-03T09:12:41.203Z,18.126953125
2022-08-03T09:13:22.954Z,18.1748046875
2022-08-03T09:14:39.321Z,17.7509765625
2022-08-03T09:15:22.877Z,17.5751953125
2022-08-03T09:16:22.984Z,16.9853515625
2022-08-03T09:17:23.235Z,16.890625
2022-08-03T09:18:23.049Z,17.40234375
2022-08-03T09:19:23.066Z,17.1298828125
2022-08-03T09:20:26.004Z,17.044921875
2022-08-03T09:21:31.109Z,17.2822265625
2022-08-03T09:22:22.891Z,17.16796875
2022-08-03T09:23:59.493Z,17.064453125
2022-08-03T09:24:40.797Z,16.7578125
2022-08-03T09:25:24.766Z,16.498046875
2022-08-03T09:26:22.968Z,16.15625
2022-08-03T09:27:23.301Z,16.169921875
2022-08-03T09:29:00.465Z,16.0771484375
2022-08-03T09:29:22.968Z,15.83984375
2022-08-03T09:30:33.930Z,15.9208984375
2022-08-03T09:31:25.930Z,16.158203125
2022-08-03T09:32:23.235Z,16.2294921875
2022-08-03T09:33:23.149Z,16.052734375
2022-08-03T09:34:22.983Z,16.1005859375
2022-08-03T09:35:33.126Z,16.0205078125
2022-08-03T09:36:22.992Z,15.76171875
2022-08-03T09:37:23.267Z,15.669921875
2022-08-03T09:38:23.308Z,15.1025390625
2022-08-03T09:39:41.099Z,15.11328125
2022-08-03T09:40:22.892Z,15.1943359375
2022-08-03T09:41:22.943Z,15.443359375
2022-08-03T09:42:28.906Z,15.126953125
2022-08-03T09:43:22.980Z,15.080078125
2022-08-03T09:44:25.602Z,15.638671875
2022-08-03T09:45:23.042Z,15.1630859375
2022-08-03T09:46:22.951Z,15.1142578125
2022-08-03T09:47:28.006Z,15.2802734375
2022-08-03T09:48:22.902Z,15.162109375
2022-08-03T09:49:23.131Z,15.2587890625
2022-08-03T09:50:23.074Z,15.3310546875
2022-08-03T09:51:33.001Z,15.154296875
2022-08-03T09:52:38.827Z,15.09765625
2022-08-03T09:53:28.940Z,14.8623046875
2022-08-03T09:54:23.047Z,14.828125
2022-08-03T09:56:33.621Z,14.42578125
2022-08-03T09:56:36.082Z,14.0478515625
2022-08-03T09:57:23.227Z,13.9189453125
2022-08-03T09:58:23.062Z,13.7666015625
2022-08-03T09:59:22.972Z,13.51953125
2022-08-03T10:00:22.852Z,13.40234375
2022-08-03T10:01:24.307Z,13.0712890625
2022-08-03T10:02:23.300Z,12.87109375
2022-08-03T10:03:23.058Z,13.0859375
2022-08-03T10:04:25.989Z,13.177734375
2022-08-03T10:05:23.064Z,13.3779296875
2022-08-03T10:06:23.005Z,13.3173828125
2022-08-03T10:07:23.225Z,13.208984375
2022-08-03T10:08:23.237Z,13.5771484375
2022-08-03T10:09:22.957Z,13.2353515625
2022-08-03T10:10:30.467Z,13.4736328125
2022-08-03T10:11:22.869Z,13.0576171875
2022-08-03T10:12:23.300Z,12.92578125
2022-08-03T10:13:23.088Z,12.6416015625
2022-08-03T10:14:23.054Z,12.4287109375
2022-08-03T10:16:24.943Z,12.3466796875
2022-08-03T10:16:25.664Z,12.2060546875
2022-08-03T10:17:23.296Z,12.3017578125
2022-08-03T10:18:23.073Z,12.0517578125
2022-08-03T10:19:22.972Z,12.0419921875
2022-08-03T10:20:22.938Z,11.7568359375
2022-08-03T10:21:22.891Z,11.640625
2022-08-03T10:22:23.300Z,11.3818359375
2022-08-03T10:23:23.240Z,11.0029296875
2022-08-03T10:24:23.012Z,10.869140625
2022-08-03T10:25:22.950Z,11.2255859375
2022-08-03T10:26:25.955Z,11.4873046875
2022-08-03T10:27:23.241Z,11.119140625
2022-08-03T10:28:23.089Z,11.0478515625
2022-08-03T10:29:23.025Z,11.013671875
2022-08-03T10:30:26.098Z,11.05078125
2022-08-03T10:31:23.085Z,11.1484375
2022-08-03T10:32:23.232Z,11.2451171875
2022-08-03T10:33:49.919Z,10.841796875
2022-08-03T10:34:23.033Z,10.1513671875
2022-08-03T10:35:23.016Z,10.0107421875
2022-08-03T10:36:22.967Z,9.5576171875
2022-08-03T10:37:28.821Z,9.462890625
2022-08-03T10:38:23.244Z,9.3671875
2022-08-03T10:39:23.060Z,9.357421875
2022-08-03T10:40:33.441Z,8.7138671875
2022-08-03T10:41:22.937Z,8.642578125
2022-08-03T10:42:23.301Z,8.833984375
2022-08-03T10:43:23.014Z,8.5693359375
2022-08-03T10:44:23.013Z,9.046875
2022-08-03T10:45:23.070Z,8.712890625
2022-08-03T10:46:23.085Z,8.8310546875
2022-08-03T10:47:23.234Z,9.22265625
2022-08-03T10:48:25.935Z,9.232421875
2022-08-03T10:49:35.128Z,9.1474609375
2022-08-03T10:50:22.938Z,9.48046875
2022-08-03T10:51:22.902Z,9.6484375
2022-08-03T10:52:31.912Z,9.0517578125
2022-08-03T10:53:23.060Z,9.0751953125
2022-08-03T10:54:23.012Z,9.052734375
2022-08-03T10:55:23.002Z,9.1611328125
2022-08-03T10:56:35.787Z,8.865234375
2022-08-03T10:57:23.449Z,8.5205078125
2022-08-03T10:58:30.365Z,8.234375
2022-08-03T10:59:27.916Z,7.7119140625
2022-08-03T11:00:23.160Z,7.4609375
2022-08-03T11:01:23.090Z,7.3662109375
2022-08-03T11:02:23.299Z,7.4873046875
2022-08-03T11:03:22.873Z,7.2255859375